sensor_id;sensor_type;location;lat;lon;timestamp;P1;durP1;ratioP1;P2;durP2;ratioP2
68449;SDS011;67758;39.572;2.652;2023-03-15T00:02:02;4.35;;;0.57;;
68449;SDS011;67758;39.572;2.652;2023-03-15T00:04:28;3.93;;;0.40;;
68449;SDS011;67758;39.572;2.652;2023-03-15T00:06:56;2.10;;;0.20;;
68449;SDS011;67758;39.572;2.652;2023-03-15T00:09:22;3.70;;;0.22;;
68449;SDS011;67758;39.572;2.652;2023-03-15T00:11:49;3.70;;;0.30;;
68449;SDS011;67758;39.572;2.652;2023-03-15T00:14:16;2.80;;;0.22;;
68449;SDS011;67758;39.572;2.652;2023-03-15T00:16:42;3.90;;;0.50;;
68449;SDS011;67758;39.572;2.652;2023-03-15T00:19:08;3.63;;;0.30;;
68449;SDS011;67758;39.572;2.652;2023-03-15T00:21:34;5.88;;;0.30;;
68449;SDS011;67758;39.572;2.652;2023-03-15T00:24:03;4.10;;;0.30;;
68449;SDS011;67758;39.572;2.652;2023-03-15T00:26:29;3.83;;;0.38;;
68449;SDS011;67758;39.572;2.652;2023-03-15T00:28:56;5.47;;;0.57;;
68449;SDS011;67758;39.572;2.652;2023-03-15T00:31:22;2.77;;;0.30;;
68449;SDS011;67758;39.572;2.652;2023-03-15T00:33:49;3.50;;;0.28;;
68449;SDS011;67758;39.572;2.652;2023-03-15T00:36:19;5.55;;;0.28;;
68449;SDS011;67758;39.572;2.652;2023-03-15T00:38:48;5.75;;;0.40;;
68449;SDS011;67758;39.572;2.652;2023-03-15T00:41:15;2.87;;;0.30;;
68449;SDS011;67758;39.572;2.652;2023-03-15T00:43:42;6.80;;;0.32;;
68449;SDS011;67758;39.572;2.652;2023-03-15T00:46:10;3.78;;;0.65;;
68449;SDS011;67758;39.572;2.652;2023-03-15T00:48:36;3.63;;;0.28;;
68449;SDS011;67758;39.572;2.652;2023-03-15T00:53:33;2.73;;;0.30;;
68449;SDS011;67758;39.572;2.652;2023-03-15T00:56:10;3.28;;;0.30;;
68449;SDS011;67758;39.572;2.652;2023-03-15T00:58:43;4.70;;;0.30;;
68449;SDS011;67758;39.572;2.652;2023-03-15T01:01:13;5.05;;;0.40;;
68449;SDS011;67758;39.572;2.652;2023-03-15T01:03:41;4.93;;;0.40;;
68449;SDS011;67758;39.572;2.652;2023-03-15T01:06:08;4.80;;;0.40;;
68449;SDS011;67758;39.572;2.652;2023-03-15T01:08:44;5.45;;;0.40;;
68449;SDS011;67758;39.572;2.652;2023-03-15T01:11:11;5.22;;;0.73;;
68449;SDS011;67758;39.572;2.652;2023-03-15T01:13:39;3.30;;;0.30;;
68449;SDS011;67758;39.572;2.652;2023-03-15T01:16:05;4.07;;;0.40;;
68449;SDS011;67758;39.572;2.652;2023-03-15T01:18:31;4.43;;;0.30;;
68449;SDS011;67758;39.572;2.652;2023-03-15T01:20:57;4.43;;;0.30;;
68449;SDS011;67758;39.572;2.652;2023-03-15T01:23:23;4.07;;;0.30;;
68449;SDS011;67758;39.572;2.652;2023-03-15T01:25:49;7.10;;;0.40;;
68449;SDS011;67758;39.572;2.652;2023-03-15T01:28:15;3.37;;;0.30;;
68449;SDS011;67758;39.572;2.652;2023-03-15T01:30:47;4.35;;;0.30;;
68449;SDS011;67758;39.572;2.652;2023-03-15T01:33:13;5.57;;;0.30;;
68449;SDS011;67758;39.572;2.652;2023-03-15T01:35:39;4.90;;;0.30;;
68449;SDS011;67758;39.572;2.652;2023-03-15T01:38:05;6.07;;;0.50;;
68449;SDS011;67758;39.572;2.652;2023-03-15T01:40:30;5.72;;;0.30;;
68449;SDS011;67758;39.572;2.652;2023-03-15T01:48:18;4.28;;;0.30;;
68449;SDS011;67758;39.572;2.652;2023-03-15T01:50:46;3.83;;;0.30;;
68449;SDS011;67758;39.572;2.652;2023-03-15T01:53:13;2.70;;;0.30;;
68449;SDS011;67758;39.572;2.652;2023-03-15T01:55:39;4.95;;;0.40;;
68449;SDS011;67758;39.572;2.652;2023-03-15T01:58:05;7.25;;;0.43;;
68449;SDS011;67758;39.572;2.652;2023-03-15T02:00:32;4.38;;;0.38;;
68449;SDS011;67758;39.572;2.652;2023-03-15T02:02:59;4.57;;;0.43;;
68449;SDS011;67758;39.572;2.652;2023-03-15T02:05:36;3.83;;;0.30;;
68449;SDS011;67758;39.572;2.652;2023-03-15T02:08:10;3.00;;;0.30;;
68449;SDS011;67758;39.572;2.652;2023-03-15T02:10:41;5.22;;;0.38;;
68449;SDS011;67758;39.572;2.652;2023-03-15T02:13:19;3.45;;;0.30;;
68449;SDS011;67758;39.572;2.652;2023-03-15T02:15:48;6.67;;;0.30;;
68449;SDS011;67758;39.572;2.652;2023-03-15T02:18:17;4.32;;;0.50;;
68449;SDS011;67758;39.572;2.652;2023-03-15T02:23:19;5.90;;;0.30;;
68449;SDS011;67758;39.572;2.652;2023-03-15T02:28:49;9.33;;;0.50;;
68449;SDS011;67758;39.572;2.652;2023-03-15T02:31:18;4.68;;;0.65;;
68449;SDS011;67758;39.572;2.652;2023-03-15T02:33:45;5.65;;;0.47;;
68449;SDS011;67758;39.572;2.652;2023-03-15T02:38:42;6.97;;;0.40;;
68449;SDS011;67758;39.572;2.652;2023-03-15T02:41:07;7.87;;;0.50;;
68449;SDS011;67758;39.572;2.652;2023-03-15T02:43:33;8.73;;;1.05;;
68449;SDS011;67758;39.572;2.652;2023-03-15T02:45:59;4.55;;;0.32;;
68449;SDS011;67758;39.572;2.652;2023-03-15T02:48:26;6.73;;;0.40;;
68449;SDS011;67758;39.572;2.652;2023-03-15T02:50:53;5.90;;;0.77;;
68449;SDS011;67758;39.572;2.652;2023-03-15T02:53:18;3.87;;;0.40;;
68449;SDS011;67758;39.572;2.652;2023-03-15T02:55:44;6.20;;;0.30;;
68449;SDS011;67758;39.572;2.652;2023-03-15T02:58:10;7.25;;;0.40;;
68449;SDS011;67758;39.572;2.652;2023-03-15T03:00:36;6.53;;;0.53;;
68449;SDS011;67758;39.572;2.652;2023-03-15T03:03:01;3.10;;;0.20;;
68449;SDS011;67758;39.572;2.652;2023-03-15T03:05:27;5.30;;;0.37;;
68449;SDS011;67758;39.572;2.652;2023-03-15T03:07:53;5.93;;;0.50;;
68449;SDS011;67758;39.572;2.652;2023-03-15T03:10:19;7.38;;;0.52;;
68449;SDS011;67758;39.572;2.652;2023-03-15T03:12:45;7.82;;;0.60;;
68449;SDS011;67758;39.572;2.652;2023-03-15T03:15:10;6.47;;;0.70;;
68449;SDS011;67758;39.572;2.652;2023-03-15T03:17:36;4.88;;;0.50;;
68449;SDS011;67758;39.572;2.652;2023-03-15T03:20:09;5.63;;;0.40;;
68449;SDS011;67758;39.572;2.652;2023-03-15T03:22:37;7.05;;;0.60;;
68449;SDS011;67758;39.572;2.652;2023-03-15T03:25:03;5.80;;;0.30;;
68449;SDS011;67758;39.572;2.652;2023-03-15T03:27:30;7.60;;;0.63;;
68449;SDS011;67758;39.572;2.652;2023-03-15T03:29:56;6.72;;;0.35;;
68449;SDS011;67758;39.572;2.652;2023-03-15T03:32:22;3.73;;;0.40;;
68449;SDS011;67758;39.572;2.652;2023-03-15T03:34:48;4.05;;;0.55;;
68449;SDS011;67758;39.572;2.652;2023-03-15T03:37:17;6.30;;;0.40;;
68449;SDS011;67758;39.572;2.652;2023-03-15T03:39:44;6.03;;;0.40;;
68449;SDS011;67758;39.572;2.652;2023-03-15T03:42:10;4.47;;;0.63;;
68449;SDS011;67758;39.572;2.652;2023-03-15T03:44:35;5.00;;;0.43;;
68449;SDS011;67758;39.572;2.652;2023-03-15T03:47:01;4.97;;;0.30;;
68449;SDS011;67758;39.572;2.652;2023-03-15T03:49:27;3.75;;;0.40;;
68449;SDS011;67758;39.572;2.652;2023-03-15T03:51:52;5.90;;;0.40;;
68449;SDS011;67758;39.572;2.652;2023-03-15T03:54:18;9.33;;;0.50;;
68449;SDS011;67758;39.572;2.652;2023-03-15T03:56:47;5.03;;;0.35;;
68449;SDS011;67758;39.572;2.652;2023-03-15T03:59:13;10.00;;;0.60;;
68449;SDS011;67758;39.572;2.652;2023-03-15T04:01:39;5.15;;;0.50;;
68449;SDS011;67758;39.572;2.652;2023-03-15T04:04:06;9.95;;;0.60;;
68449;SDS011;67758;39.572;2.652;2023-03-15T04:06:32;4.80;;;0.45;;
68449;SDS011;67758;39.572;2.652;2023-03-15T04:08:59;7.37;;;0.63;;
68449;SDS011;67758;39.572;2.652;2023-03-15T04:11:27;5.93;;;0.52;;
68449;SDS011;67758;39.572;2.652;2023-03-15T04:13:53;7.85;;;0.60;;
68449;SDS011;67758;39.572;2.652;2023-03-15T04:16:18;5.37;;;0.63;;
68449;SDS011;67758;39.572;2.652;2023-03-15T04:18:44;7.55;;;0.60;;
68449;SDS011;67758;39.572;2.652;2023-03-15T04:21:10;9.20;;;0.55;;
68449;SDS011;67758;39.572;2.652;2023-03-15T04:23:36;4.20;;;0.30;;
68449;SDS011;67758;39.572;2.652;2023-03-15T04:26:02;7.43;;;0.50;;
68449;SDS011;67758;39.572;2.652;2023-03-15T04:28:29;8.63;;;0.60;;
68449;SDS011;67758;39.572;2.652;2023-03-15T04:30:55;6.18;;;0.70;;
68449;SDS011;67758;39.572;2.652;2023-03-15T04:33:26;3.85;;;0.40;;
68449;SDS011;67758;39.572;2.652;2023-03-15T04:35:52;5.85;;;0.60;;
68449;SDS011;67758;39.572;2.652;2023-03-15T04:38:18;7.40;;;0.50;;
68449;SDS011;67758;39.572;2.652;2023-03-15T04:40:44;4.35;;;0.50;;
68449;SDS011;67758;39.572;2.652;2023-03-15T04:43:09;7.33;;;0.73;;
68449;SDS011;67758;39.572;2.652;2023-03-15T04:45:35;8.55;;;0.50;;
68449;SDS011;67758;39.572;2.652;2023-03-15T04:48:01;5.73;;;0.50;;
68449;SDS011;67758;39.572;2.652;2023-03-15T04:50:27;4.70;;;0.30;;
68449;SDS011;67758;39.572;2.652;2023-03-15T04:52:54;9.80;;;0.60;;
68449;SDS011;67758;39.572;2.652;2023-03-15T04:55:22;7.45;;;0.85;;
68449;SDS011;67758;39.572;2.652;2023-03-15T04:57:48;7.67;;;0.73;;
68449;SDS011;67758;39.572;2.652;2023-03-15T05:00:13;12.20;;;1.05;;
68449;SDS011;67758;39.572;2.652;2023-03-15T05:02:39;4.87;;;0.40;;
68449;SDS011;67758;39.572;2.652;2023-03-15T05:05:06;8.23;;;0.52;;
68449;SDS011;67758;39.572;2.652;2023-03-15T05:07:33;6.78;;;0.45;;
68449;SDS011;67758;39.572;2.652;2023-03-15T05:10:00;8.02;;;0.50;;
68449;SDS011;67758;39.572;2.652;2023-03-15T05:12:26;6.78;;;0.55;;
68449;SDS011;67758;39.572;2.652;2023-03-15T05:14:52;3.67;;;0.30;;
68449;SDS011;67758;39.572;2.652;2023-03-15T05:17:18;7.00;;;0.52;;
68449;SDS011;67758;39.572;2.652;2023-03-15T05:19:44;5.50;;;0.57;;
68449;SDS011;67758;39.572;2.652;2023-03-15T05:22:10;6.93;;;0.70;;
68449;SDS011;67758;39.572;2.652;2023-03-15T05:24:36;7.90;;;0.70;;
68449;SDS011;67758;39.572;2.652;2023-03-15T05:27:01;6.20;;;0.43;;
68449;SDS011;67758;39.572;2.652;2023-03-15T05:29:28;5.60;;;0.55;;
68449;SDS011;67758;39.572;2.652;2023-03-15T05:31:54;7.03;;;0.57;;
68449;SDS011;67758;39.572;2.652;2023-03-15T05:34:19;10.63;;;0.70;;
68449;SDS011;67758;39.572;2.652;2023-03-15T05:36:51;9.10;;;0.60;;
68449;SDS011;67758;39.572;2.652;2023-03-15T05:39:17;10.65;;;0.98;;
68449;SDS011;67758;39.572;2.652;2023-03-15T05:41:43;6.15;;;0.52;;
68449;SDS011;67758;39.572;2.652;2023-03-15T05:44:09;6.93;;;0.93;;
68449;SDS011;67758;39.572;2.652;2023-03-15T05:46:35;8.20;;;0.50;;
68449;SDS011;67758;39.572;2.652;2023-03-15T05:49:00;6.67;;;0.53;;
68449;SDS011;67758;39.572;2.652;2023-03-15T05:51:26;7.22;;;0.50;;
68449;SDS011;67758;39.572;2.652;2023-03-15T05:53:52;5.20;;;0.47;;
68449;SDS011;67758;39.572;2.652;2023-03-15T05:56:17;7.03;;;0.60;;
68449;SDS011;67758;39.572;2.652;2023-03-15T05:58:43;8.60;;;0.70;;
68449;SDS011;67758;39.572;2.652;2023-03-15T06:01:09;7.93;;;0.60;;
68449;SDS011;67758;39.572;2.652;2023-03-15T06:03:34;8.48;;;0.80;;
68449;SDS011;67758;39.572;2.652;2023-03-15T06:06:03;8.83;;;0.60;;
68449;SDS011;67758;39.572;2.652;2023-03-15T06:08:29;6.83;;;0.53;;
68449;SDS011;67758;39.572;2.652;2023-03-15T06:10:55;12.93;;;0.82;;
68449;SDS011;67758;39.572;2.652;2023-03-15T06:13:20;10.80;;;1.00;;
68449;SDS011;67758;39.572;2.652;2023-03-15T06:15:46;8.63;;;0.60;;
68449;SDS011;67758;39.572;2.652;2023-03-15T06:18:12;8.60;;;0.70;;
68449;SDS011;67758;39.572;2.652;2023-03-15T06:20:38;10.32;;;1.38;;
68449;SDS011;67758;39.572;2.652;2023-03-15T06:23:05;11.30;;;1.35;;
68449;SDS011;67758;39.572;2.652;2023-03-15T06:25:31;7.38;;;0.98;;
68449;SDS011;67758;39.572;2.652;2023-03-15T06:27:56;10.93;;;1.03;;
68449;SDS011;67758;39.572;2.652;2023-03-15T06:30:22;6.17;;;0.67;;
68449;SDS011;67758;39.572;2.652;2023-03-15T06:32:48;10.10;;;0.85;;
68449;SDS011;67758;39.572;2.652;2023-03-15T06:35:13;10.57;;;0.77;;
68449;SDS011;67758;39.572;2.652;2023-03-15T06:37:39;12.80;;;2.03;;
68449;SDS011;67758;39.572;2.652;2023-03-15T06:40:06;12.05;;;1.15;;
68449;SDS011;67758;39.572;2.652;2023-03-15T06:42:33;12.57;;;1.57;;
68449;SDS011;67758;39.572;2.652;2023-03-15T06:44:59;9.60;;;0.95;;
68449;SDS011;67758;39.572;2.652;2023-03-15T06:47:26;12.77;;;1.13;;
68449;SDS011;67758;39.572;2.652;2023-03-15T06:49:52;15.73;;;1.25;;
68449;SDS011;67758;39.572;2.652;2023-03-15T06:52:18;11.30;;;1.03;;
68449;SDS011;67758;39.572;2.652;2023-03-15T06:54:43;10.83;;;0.80;;
68449;SDS011;67758;39.572;2.652;2023-03-15T06:57:09;13.00;;;0.88;;
68449;SDS011;67758;39.572;2.652;2023-03-15T06:59:35;10.77;;;1.23;;
68449;SDS011;67758;39.572;2.652;2023-03-15T07:02:00;8.68;;;0.82;;
68449;SDS011;67758;39.572;2.652;2023-03-15T07:04:26;8.73;;;0.87;;
68449;SDS011;67758;39.572;2.652;2023-03-15T07:06:52;11.32;;;1.35;;
68449;SDS011;67758;39.572;2.652;2023-03-15T07:09:18;11.63;;;1.30;;
68449;SDS011;67758;39.572;2.652;2023-03-15T08:11:51;9.80;;;1.02;;
68449;SDS011;67758;39.572;2.652;2023-03-15T08:14:21;7.53;;;0.90;;
68449;SDS011;67758;39.572;2.652;2023-03-15T08:16:48;14.20;;;1.23;;
68449;SDS011;67758;39.572;2.652;2023-03-15T08:19:14;7.15;;;0.85;;
68449;SDS011;67758;39.572;2.652;2023-03-15T08:21:40;11.98;;;0.80;;
68449;SDS011;67758;39.572;2.652;2023-03-15T08:24:09;5.87;;;0.67;;
68449;SDS011;67758;39.572;2.652;2023-03-15T08:26:36;9.73;;;0.65;;
68449;SDS011;67758;39.572;2.652;2023-03-15T08:29:02;12.05;;;1.08;;
68449;SDS011;67758;39.572;2.652;2023-03-15T08:31:28;8.50;;;0.90;;
68449;SDS011;67758;39.572;2.652;2023-03-15T08:33:54;8.33;;;1.10;;
68449;SDS011;67758;39.572;2.652;2023-03-15T08:36:20;9.68;;;0.73;;
68449;SDS011;67758;39.572;2.652;2023-03-15T08:38:45;9.10;;;1.50;;
68449;SDS011;67758;39.572;2.652;2023-03-15T08:41:11;9.85;;;1.13;;
68449;SDS011;67758;39.572;2.652;2023-03-15T08:43:37;11.10;;;1.38;;
68449;SDS011;67758;39.572;2.652;2023-03-15T08:46:03;11.73;;;1.10;;
68449;SDS011;67758;39.572;2.652;2023-03-15T08:48:29;8.25;;;0.82;;
68449;SDS011;67758;39.572;2.652;2023-03-15T08:50:55;8.00;;;1.00;;
68449;SDS011;67758;39.572;2.652;2023-03-15T08:53:26;10.80;;;1.13;;
68449;SDS011;67758;39.572;2.652;2023-03-15T08:55:52;8.98;;;1.02;;
68449;SDS011;67758;39.572;2.652;2023-03-15T08:58:17;8.87;;;0.80;;
68449;SDS011;67758;39.572;2.652;2023-03-15T09:00:43;7.65;;;0.88;;
68449;SDS011;67758;39.572;2.652;2023-03-15T09:03:09;10.27;;;1.00;;
68449;SDS011;67758;39.572;2.652;2023-03-15T09:05:35;7.78;;;0.90;;
68449;SDS011;67758;39.572;2.652;2023-03-15T09:08:01;9.10;;;1.00;;
68449;SDS011;67758;39.572;2.652;2023-03-15T09:10:27;8.63;;;0.90;;
68449;SDS011;67758;39.572;2.652;2023-03-15T09:12:52;6.70;;;0.80;;
68449;SDS011;67758;39.572;2.652;2023-03-15T09:15:18;12.18;;;1.02;;
68449;SDS011;67758;39.572;2.652;2023-03-15T09:17:44;7.37;;;1.10;;
68449;SDS011;67758;39.572;2.652;2023-03-15T09:20:10;5.93;;;0.93;;
68449;SDS011;67758;39.572;2.652;2023-03-15T09:22:41;9.13;;;1.25;;
68449;SDS011;67758;39.572;2.652;2023-03-15T09:25:08;7.30;;;1.00;;
68449;SDS011;67758;39.572;2.652;2023-03-15T09:27:35;9.27;;;1.00;;
68449;SDS011;67758;39.572;2.652;2023-03-15T09:30:01;9.25;;;1.52;;
68449;SDS011;67758;39.572;2.652;2023-03-15T09:32:28;8.25;;;1.17;;
68449;SDS011;67758;39.572;2.652;2023-03-15T09:34:54;8.37;;;1.13;;
68449;SDS011;67758;39.572;2.652;2023-03-15T09:37:19;8.67;;;0.70;;
68449;SDS011;67758;39.572;2.652;2023-03-15T09:39:46;8.73;;;1.40;;
68449;SDS011;67758;39.572;2.652;2023-03-15T09:42:19;12.00;;;1.20;;
68449;SDS011;67758;39.572;2.652;2023-03-15T09:50:02;12.90;;;1.00;;
68449;SDS011;67758;39.572;2.652;2023-03-15T09:52:38;9.23;;;0.98;;
68449;SDS011;67758;39.572;2.652;2023-03-15T09:55:17;8.07;;;1.13;;
68449;SDS011;67758;39.572;2.652;2023-03-15T10:00:44;10.05;;;1.20;;
68449;SDS011;67758;39.572;2.652;2023-03-15T10:06:11;7.70;;;0.95;;
68449;SDS011;67758;39.572;2.652;2023-03-15T10:08:49;7.38;;;0.73;;
68449;SDS011;67758;39.572;2.652;2023-03-15T10:16:48;6.07;;;0.80;;
68449;SDS011;67758;39.572;2.652;2023-03-15T10:27:07;8.55;;;0.80;;
68449;SDS011;67758;39.572;2.652;2023-03-15T10:29:40;7.97;;;0.97;;
68449;SDS011;67758;39.572;2.652;2023-03-15T10:32:05;7.80;;;1.10;;
68449;SDS011;67758;39.572;2.652;2023-03-15T10:34:42;8.00;;;1.02;;
68449;SDS011;67758;39.572;2.652;2023-03-15T10:37:11;8.90;;;1.33;;
68449;SDS011;67758;39.572;2.652;2023-03-15T10:39:38;7.05;;;1.30;;
68449;SDS011;67758;39.572;2.652;2023-03-15T10:42:03;5.80;;;1.10;;
68449;SDS011;67758;39.572;2.652;2023-03-15T10:44:29;11.90;;;1.50;;
68449;SDS011;67758;39.572;2.652;2023-03-15T10:47:02;6.53;;;1.20;;
68449;SDS011;67758;39.572;2.652;2023-03-15T10:49:37;7.00;;;1.40;;
68449;SDS011;67758;39.572;2.652;2023-03-15T10:52:04;7.75;;;2.08;;
68449;SDS011;67758;39.572;2.652;2023-03-15T10:54:31;9.27;;;1.83;;
68449;SDS011;67758;39.572;2.652;2023-03-15T10:57:00;9.25;;;2.03;;
68449;SDS011;67758;39.572;2.652;2023-03-15T10:59:33;8.55;;;2.00;;
68449;SDS011;67758;39.572;2.652;2023-03-15T11:04:50;6.80;;;1.90;;
68449;SDS011;67758;39.572;2.652;2023-03-15T11:07:26;8.02;;;2.33;;
68449;SDS011;67758;39.572;2.652;2023-03-15T11:09:53;10.05;;;2.28;;
68449;SDS011;67758;39.572;2.652;2023-03-15T11:12:24;5.57;;;1.90;;
68449;SDS011;67758;39.572;2.652;2023-03-15T11:14:55;6.45;;;2.08;;
68449;SDS011;67758;39.572;2.652;2023-03-15T11:17:25;6.17;;;1.70;;
68449;SDS011;67758;39.572;2.652;2023-03-15T11:20:15;6.15;;;1.65;;
68449;SDS011;67758;39.572;2.652;2023-03-15T11:22:55;7.25;;;2.30;;
68449;SDS011;67758;39.572;2.652;2023-03-15T11:25:27;7.72;;;2.65;;
68449;SDS011;67758;39.572;2.652;2023-03-15T11:27:58;9.80;;;3.10;;
68449;SDS011;67758;39.572;2.652;2023-03-15T11:30:28;9.70;;;2.33;;
68449;SDS011;67758;39.572;2.652;2023-03-15T11:32:57;11.57;;;2.63;;
68449;SDS011;67758;39.572;2.652;2023-03-15T11:35:40;8.13;;;2.70;;
68449;SDS011;67758;39.572;2.652;2023-03-15T11:47:14;10.43;;;2.60;;
68449;SDS011;67758;39.572;2.652;2023-03-15T11:49:59;9.80;;;2.60;;
68449;SDS011;67758;39.572;2.652;2023-03-15T11:52:26;9.10;;;2.13;;
68449;SDS011;67758;39.572;2.652;2023-03-15T11:54:54;11.27;;;2.90;;
68449;SDS011;67758;39.572;2.652;2023-03-15T12:00:14;8.38;;;2.15;;
68449;SDS011;67758;39.572;2.652;2023-03-15T12:03:22;8.93;;;2.60;;
68449;SDS011;67758;39.572;2.652;2023-03-15T12:05:57;9.13;;;2.63;;
68449;SDS011;67758;39.572;2.652;2023-03-15T12:08:49;10.20;;;2.90;;
68449;SDS011;67758;39.572;2.652;2023-03-15T12:16:38;10.05;;;2.78;;
68449;SDS011;67758;39.572;2.652;2023-03-15T12:19:25;12.57;;;2.80;;
68449;SDS011;67758;39.572;2.652;2023-03-15T12:21:52;9.73;;;2.97;;
68449;SDS011;67758;39.572;2.652;2023-03-15T12:24:38;10.20;;;2.50;;
68449;SDS011;67758;39.572;2.652;2023-03-15T12:29:41;10.63;;;2.80;;
68449;SDS011;67758;39.572;2.652;2023-03-15T12:32:13;8.30;;;2.53;;
68449;SDS011;67758;39.572;2.652;2023-03-15T12:37:21;9.15;;;2.40;;
68449;SDS011;67758;39.572;2.652;2023-03-15T12:39:52;8.07;;;1.88;;
68449;SDS011;67758;39.572;2.652;2023-03-15T12:55:55;8.02;;;2.30;;
68449;SDS011;67758;39.572;2.652;2023-03-15T12:58:45;8.35;;;1.92;;
68449;SDS011;67758;39.572;2.652;2023-03-15T13:01:15;6.93;;;1.77;;
68449;SDS011;67758;39.572;2.652;2023-03-15T13:03:42;9.38;;;2.03;;
68449;SDS011;67758;39.572;2.652;2023-03-15T13:06:13;7.75;;;1.98;;
68449;SDS011;67758;39.572;2.652;2023-03-15T13:08:57;6.82;;;1.60;;
68449;SDS011;67758;39.572;2.652;2023-03-15T13:11:35;9.88;;;1.70;;
68449;SDS011;67758;39.572;2.652;2023-03-15T13:19:30;8.07;;;1.95;;
68449;SDS011;67758;39.572;2.652;2023-03-15T13:25:16;6.72;;;1.60;;
68449;SDS011;67758;39.572;2.652;2023-03-15T13:27:50;7.88;;;2.50;;
68449;SDS011;67758;39.572;2.652;2023-03-15T13:30:23;7.57;;;1.73;;
68449;SDS011;67758;39.572;2.652;2023-03-15T13:35:47;8.20;;;1.40;;
68449;SDS011;67758;39.572;2.652;2023-03-15T13:40:58;8.47;;;1.80;;
68449;SDS011;67758;39.572;2.652;2023-03-15T13:43:27;6.45;;;1.05;;
68449;SDS011;67758;39.572;2.652;2023-03-15T13:45:56;5.65;;;1.25;;
68449;SDS011;67758;39.572;2.652;2023-03-15T13:48:24;6.38;;;1.23;;
68449;SDS011;67758;39.572;2.652;2023-03-15T13:50:51;7.90;;;1.55;;
68449;SDS011;67758;39.572;2.652;2023-03-15T13:53:22;8.60;;;1.30;;
68449;SDS011;67758;39.572;2.652;2023-03-15T13:55:52;6.80;;;1.35;;
68449;SDS011;67758;39.572;2.652;2023-03-15T13:58:19;5.32;;;1.27;;
68449;SDS011;67758;39.572;2.652;2023-03-15T14:00:48;7.05;;;1.40;;
68449;SDS011;67758;39.572;2.652;2023-03-15T14:03:21;6.75;;;1.30;;
68449;SDS011;67758;39.572;2.652;2023-03-15T14:05:49;6.77;;;1.30;;
68449;SDS011;67758;39.572;2.652;2023-03-15T14:08:21;6.28;;;1.50;;
68449;SDS011;67758;39.572;2.652;2023-03-15T14:13:47;7.30;;;1.20;;
68449;SDS011;67758;39.572;2.652;2023-03-15T14:16:40;8.63;;;1.70;;
68449;SDS011;67758;39.572;2.652;2023-03-15T14:21:41;17.65;;;1.23;;
68449;SDS011;67758;39.572;2.652;2023-03-15T14:24:15;6.38;;;1.65;;
68449;SDS011;67758;39.572;2.652;2023-03-15T14:26:53;5.57;;;1.23;;
68449;SDS011;67758;39.572;2.652;2023-03-15T14:29:24;7.80;;;1.40;;
68449;SDS011;67758;39.572;2.652;2023-03-15T14:31:53;6.37;;;1.03;;
68449;SDS011;67758;39.572;2.652;2023-03-15T14:34:29;6.65;;;0.88;;
68449;SDS011;67758;39.572;2.652;2023-03-15T14:37:23;5.13;;;0.80;;
68449;SDS011;67758;39.572;2.652;2023-03-15T14:40:03;7.10;;;0.93;;
68449;SDS011;67758;39.572;2.652;2023-03-15T14:42:37;5.65;;;1.27;;
68449;SDS011;67758;39.572;2.652;2023-03-15T14:45:06;5.53;;;0.93;;
68449;SDS011;67758;39.572;2.652;2023-03-15T14:47:32;6.55;;;1.13;;
68449;SDS011;67758;39.572;2.652;2023-03-15T14:50:02;7.43;;;1.02;;
68449;SDS011;67758;39.572;2.652;2023-03-15T14:52:27;10.57;;;0.70;;
68449;SDS011;67758;39.572;2.652;2023-03-15T14:54:53;6.10;;;1.00;;
68449;SDS011;67758;39.572;2.652;2023-03-15T14:57:19;3.10;;;0.57;;
68449;SDS011;67758;39.572;2.652;2023-03-15T14:59:45;7.33;;;1.10;;
68449;SDS011;67758;39.572;2.652;2023-03-15T15:02:14;5.57;;;1.13;;
68449;SDS011;67758;39.572;2.652;2023-03-15T15:04:41;5.68;;;0.63;;
68449;SDS011;67758;39.572;2.652;2023-03-15T15:07:11;7.37;;;1.13;;
68449;SDS011;67758;39.572;2.652;2023-03-15T15:09:38;8.68;;;1.17;;
68449;SDS011;67758;39.572;2.652;2023-03-15T15:12:10;8.13;;;1.00;;
68449;SDS011;67758;39.572;2.652;2023-03-15T15:14:36;7.28;;;0.90;;
68449;SDS011;67758;39.572;2.652;2023-03-15T15:17:02;6.87;;;1.60;;
68449;SDS011;67758;39.572;2.652;2023-03-15T15:19:28;6.05;;;1.02;;
68449;SDS011;67758;39.572;2.652;2023-03-15T15:21:54;5.28;;;1.17;;
68449;SDS011;67758;39.572;2.652;2023-03-15T15:24:21;5.82;;;0.95;;
68449;SDS011;67758;39.572;2.652;2023-03-15T15:26:50;5.00;;;1.03;;
68449;SDS011;67758;39.572;2.652;2023-03-15T15:29:16;4.57;;;1.08;;
68449;SDS011;67758;39.572;2.652;2023-03-15T15:31:42;5.77;;;1.00;;
68449;SDS011;67758;39.572;2.652;2023-03-15T15:34:09;9.52;;;1.02;;
68449;SDS011;67758;39.572;2.652;2023-03-15T15:36:42;9.38;;;1.77;;
68449;SDS011;67758;39.572;2.652;2023-03-15T15:41:51;8.85;;;0.90;;
68449;SDS011;67758;39.572;2.652;2023-03-15T15:44:18;9.93;;;1.50;;
68449;SDS011;67758;39.572;2.652;2023-03-15T15:46:45;5.45;;;0.70;;
68449;SDS011;67758;39.572;2.652;2023-03-15T15:49:11;5.13;;;1.00;;
68449;SDS011;67758;39.572;2.652;2023-03-15T15:51:38;7.93;;;1.03;;
68449;SDS011;67758;39.572;2.652;2023-03-15T15:54:08;9.07;;;1.20;;
68449;SDS011;67758;39.572;2.652;2023-03-15T15:56:39;6.15;;;1.10;;
68449;SDS011;67758;39.572;2.652;2023-03-15T15:59:34;7.68;;;1.23;;
68449;SDS011;67758;39.572;2.652;2023-03-15T16:02:00;8.55;;;1.10;;
68449;SDS011;67758;39.572;2.652;2023-03-15T16:04:25;8.07;;;1.50;;
68449;SDS011;67758;39.572;2.652;2023-03-15T16:06:53;6.82;;;1.10;;
68449;SDS011;67758;39.572;2.652;2023-03-15T16:09:23;8.50;;;1.30;;
68449;SDS011;67758;39.572;2.652;2023-03-15T16:11:50;7.75;;;1.00;;
68449;SDS011;67758;39.572;2.652;2023-03-15T16:14:16;6.03;;;1.23;;
68449;SDS011;67758;39.572;2.652;2023-03-15T16:16:41;4.33;;;0.93;;
68449;SDS011;67758;39.572;2.652;2023-03-15T16:19:07;6.47;;;1.10;;
68449;SDS011;67758;39.572;2.652;2023-03-15T16:21:36;7.53;;;1.27;;
68449;SDS011;67758;39.572;2.652;2023-03-15T16:24:10;7.65;;;1.23;;
68449;SDS011;67758;39.572;2.652;2023-03-15T16:26:39;7.53;;;1.10;;
68449;SDS011;67758;39.572;2.652;2023-03-15T16:29:15;6.63;;;1.10;;
68449;SDS011;67758;39.572;2.652;2023-03-15T16:31:43;8.98;;;1.60;;
68449;SDS011;67758;39.572;2.652;2023-03-15T16:34:10;7.53;;;1.00;;
68449;SDS011;67758;39.572;2.652;2023-03-15T16:36:36;6.60;;;1.20;;
68449;SDS011;67758;39.572;2.652;2023-03-15T16:39:04;5.57;;;1.05;;
68449;SDS011;67758;39.572;2.652;2023-03-15T16:41:29;7.70;;;1.30;;
68449;SDS011;67758;39.572;2.652;2023-03-15T16:43:56;7.82;;;1.10;;
68449;SDS011;67758;39.572;2.652;2023-03-15T16:46:22;8.33;;;1.20;;
68449;SDS011;67758;39.572;2.652;2023-03-15T16:48:48;8.77;;;1.25;;
68449;SDS011;67758;39.572;2.652;2023-03-15T16:51:13;6.77;;;1.57;;
68449;SDS011;67758;39.572;2.652;2023-03-15T16:53:40;6.22;;;1.40;;
68449;SDS011;67758;39.572;2.652;2023-03-15T16:56:09;9.38;;;1.10;;
68449;SDS011;67758;39.572;2.652;2023-03-15T16:58:37;7.80;;;1.50;;
68449;SDS011;67758;39.572;2.652;2023-03-15T17:01:03;8.93;;;1.30;;
68449;SDS011;67758;39.572;2.652;2023-03-15T17:03:32;7.35;;;0.90;;
68449;SDS011;67758;39.572;2.652;2023-03-15T17:05:59;8.25;;;1.45;;
68449;SDS011;67758;39.572;2.652;2023-03-15T17:08:24;6.57;;;1.17;;
68449;SDS011;67758;39.572;2.652;2023-03-15T17:10:50;7.53;;;1.48;;
68449;SDS011;67758;39.572;2.652;2023-03-15T17:13:19;7.03;;;1.30;;
68449;SDS011;67758;39.572;2.652;2023-03-15T17:15:50;8.05;;;1.15;;
68449;SDS011;67758;39.572;2.652;2023-03-15T17:18:17;6.77;;;1.07;;
68449;SDS011;67758;39.572;2.652;2023-03-15T17:20:47;6.55;;;1.23;;
68449;SDS011;67758;39.572;2.652;2023-03-15T17:23:14;9.10;;;1.95;;
68449;SDS011;67758;39.572;2.652;2023-03-15T17:25:40;7.07;;;1.25;;
68449;SDS011;67758;39.572;2.652;2023-03-15T17:28:06;6.30;;;1.17;;
68449;SDS011;67758;39.572;2.652;2023-03-15T17:30:33;8.18;;;1.40;;
68449;SDS011;67758;39.572;2.652;2023-03-15T17:33:01;5.47;;;1.05;;
68449;SDS011;67758;39.572;2.652;2023-03-15T17:35:28;7.37;;;1.43;;